createdAt,value
2018-11-13T00:00:29.074Z,99459.16
2018-11-13T00:02:57.799Z,99449.09
2018-11-13T00:05:26.662Z,99446.13
2018-11-13T00:07:55.115Z,99463.09
2018-11-13T00:10:24.171Z,99491.25
2018-11-13T00:12:52.603Z,99487.97
2018-11-13T00:15:21.008Z,99496.04
2018-11-13T00:17:49.522Z,99494.98
2018-11-13T00:20:19.457Z,99477.03
2018-11-13T00:22:47.949Z,99481.17
2018-11-13T00:25:17.653Z,99488.52
2018-11-13T00:27:46.419Z,99507.13
2018-11-13T00:30:17.640Z,99504.02
2018-11-13T00:32:46.451Z,99491.73
2018-11-13T00:35:15.827Z,99475.60
2018-11-13T00:37:45.060Z,99498.51
2018-11-13T00:40:14.356Z,99514.77
2018-11-13T00:42:43.756Z,99518.30
2018-11-13T00:45:12.270Z,99522.08
2018-11-13T00:47:40.748Z,99517.69
2018-11-13T00:50:14.110Z,99523.97
2018-11-13T00:52:44.277Z,99523.88
2018-11-13T00:55:12.928Z,99501.30
2018-11-13T00:57:42.379Z,99496.66
2018-11-13T01:00:14.214Z,99499.84
2018-11-13T01:05:19.220Z,99478.13
2018-11-13T01:07:48.557Z,99482.09
2018-11-13T01:10:18.019Z,99505.20
2018-11-13T01:12:47.560Z,99513.75
2018-11-13T01:15:17.632Z,99531.45
2018-11-13T01:17:47.487Z,99532.52
2018-11-13T01:20:16.643Z,99535.05
2018-11-13T01:22:45.325Z,99533.17
2018-11-13T01:25:14.854Z,99538.53
2018-11-13T01:27:44.105Z,99528.55
2018-11-13T01:30:13.520Z,99525.52
2018-11-13T01:32:42.610Z,99538.38
2018-11-13T01:35:12.491Z,99538.29
2018-11-13T01:37:41.050Z,99553.66
2018-11-13T01:40:14.155Z,99555.56
2018-11-13T01:42:42.839Z,99565.72
2018-11-13T01:45:12.523Z,99569.59
2018-11-13T01:47:43.775Z,99575.97
2018-11-13T01:50:14.431Z,99579.61
2018-11-13T01:52:42.866Z,99576.05
2018-11-13T01:55:12.482Z,99575.48
2018-11-13T01:57:41.007Z,99569.25
2018-11-13T02:00:18.830Z,99587.27
2018-11-13T02:02:48.691Z,99585.42
2018-11-13T02:05:18.210Z,99580.61
2018-11-13T02:07:46.909Z,99584.30
2018-11-13T02:10:16.086Z,99589.42
2018-11-13T02:12:44.736Z,99589.16
2018-11-13T02:15:13.303Z,99591.73
2018-11-13T02:17:42.850Z,99595.90
2018-11-13T02:20:13.511Z,99596.25
2018-11-13T02:22:42.143Z,99584.26
2018-11-13T02:25:12.704Z,99573.94
2018-11-13T02:27:41.774Z,99581.45
2018-11-13T02:30:13.066Z,99590.83
2018-11-13T02:32:42.324Z,99592.65
2018-11-13T02:35:11.577Z,99590.84
2018-11-13T02:37:40.091Z,99592.77
2018-11-13T02:40:09.317Z,99591.53
2018-11-13T02:42:38.403Z,99588.95
2018-11-13T02:45:10.752Z,99589.13
2018-11-13T02:47:39.689Z,99593.72
2018-11-13T02:50:09.978Z,99599.52
2018-11-13T02:52:39.480Z,99592.95
2018-11-13T02:55:08.435Z,99594.84
2018-11-13T02:57:36.939Z,99609.36
2018-11-13T03:00:07.846Z,99610.18
2018-11-13T03:02:36.274Z,99625.56
2018-11-13T03:05:05.495Z,99624.06
2018-11-13T03:07:34.055Z,99609.28
2018-11-13T03:10:02.530Z,99610.40
2018-11-13T03:12:30.992Z,99616.93
2018-11-13T03:14:59.451Z,99616.07
2018-11-13T03:17:27.903Z,99615.94
2018-11-13T03:19:56.367Z,99615.59
2018-11-13T03:22:24.837Z,99616.28
2018-11-13T03:24:53.337Z,99621.91
2018-11-13T03:27:21.789Z,99626.17
2018-11-13T03:29:50.272Z,99632.36
2018-11-13T03:32:18.803Z,99646.02
2018-11-13T03:34:47.279Z,99652.00
2018-11-13T03:37:15.779Z,99648.38
2018-11-13T03:39:44.207Z,99649.33
2018-11-13T03:42:12.665Z,99657.36
2018-11-13T03:44:41.141Z,99661.34
2018-11-13T03:47:09.614Z,99660.72
2018-11-13T03:49:41.879Z,99672.70
2018-11-13T03:52:10.283Z,99660.14
2018-11-13T03:54:38.733Z,99660.01
2018-11-13T03:57:07.211Z,99663.11
2018-11-13T03:59:35.687Z,99662.12
2018-11-13T04:02:04.395Z,99661.76
2018-11-13T04:04:32.820Z,99668.47
2018-11-13T04:07:01.322Z,99670.86
2018-11-13T04:09:29.744Z,99670.70
2018-11-13T04:11:58.243Z,99668.55
2018-11-13T04:14:26.687Z,99670.27
2018-11-13T04:16:55.110Z,99667.25
2018-11-13T04:19:23.537Z,99671.75
2018-11-13T04:21:57.918Z,99677.36
2018-11-13T04:24:26.459Z,99686.42
2018-11-13T04:26:54.930Z,99685.95
2018-11-13T04:29:23.590Z,99684.28
2018-11-13T04:31:52.043Z,99691.98
2018-11-13T04:34:20.494Z,99694.96
2018-11-13T04:36:48.927Z,99688.17
2018-11-13T04:39:17.699Z,99691.75
2018-11-13T04:41:46.187Z,99658.47
2018-11-13T04:44:14.606Z,99696.25
2018-11-13T04:46:43.099Z,99692.25
2018-11-13T04:49:11.510Z,99686.53
2018-11-13T04:51:40.616Z,99692.12
2018-11-13T04:54:08.986Z,99699.33
2018-11-13T04:56:37.419Z,99705.86
2018-11-13T04:59:05.939Z,99704.97
2018-11-13T05:01:34.341Z,99708.46
2018-11-13T05:04:02.864Z,99707.52
2018-11-13T05:06:31.316Z,99705.36
2018-11-13T05:08:59.778Z,99702.48
2018-11-13T05:11:28.237Z,99703.05
2018-11-13T05:13:56.699Z,99697.88
2018-11-13T05:16:25.249Z,99697.44
2018-11-13T05:18:53.702Z,99704.95
2018-11-13T05:21:22.192Z,99701.05
2018-11-13T05:23:50.675Z,99704.41
2018-11-13T05:26:19.111Z,99707.04
2018-11-13T05:28:47.846Z,99706.72
2018-11-13T05:31:16.292Z,99707.59
2018-11-13T05:33:44.828Z,99680.41
2018-11-13T05:36:13.265Z,99704.70
2018-11-13T05:38:42.072Z,99711.31
2018-11-13T05:41:10.565Z,99721.38
2018-11-13T05:43:39.067Z,99717.20
2018-11-13T05:46:07.492Z,99723.05
2018-11-13T05:48:35.931Z,99731.73
2018-11-13T05:51:04.430Z,99734.98
2018-11-13T05:53:32.915Z,99741.19
2018-11-13T05:56:01.379Z,99750.71
2018-11-13T05:58:29.886Z,99754.47
2018-11-13T06:00:58.367Z,99754.30
2018-11-13T06:03:26.860Z,99762.28
2018-11-13T06:05:55.313Z,99752.98
2018-11-13T06:08:23.938Z,99761.38
2018-11-13T06:10:53.091Z,99761.33
2018-11-13T06:13:21.627Z,99754.39
2018-11-13T06:15:50.109Z,99752.56
2018-11-13T06:18:18.653Z,99747.72
2018-11-13T06:20:47.007Z,99739.91
2018-11-13T06:23:15.518Z,99734.41
2018-11-13T06:25:44.000Z,99752.23
2018-11-13T06:28:12.487Z,99777.30
2018-11-13T06:30:40.991Z,99773.40
2018-11-13T06:33:09.520Z,99772.31
2018-11-13T06:35:37.967Z,99784.00
2018-11-13T06:38:06.490Z,99800.81
2018-11-13T06:40:34.942Z,99816.84
2018-11-13T06:43:03.384Z,99812.17
2018-11-13T06:45:31.929Z,99813.66
2018-11-13T06:48:00.379Z,99810.48
2018-11-13T06:50:28.863Z,99819.99
2018-11-13T06:52:57.309Z,99829.11
2018-11-13T06:55:33.290Z,99835.64
2018-11-13T06:58:02.437Z,99824.48
2018-11-13T07:00:30.871Z,99816.63
2018-11-13T07:02:59.246Z,99807.59
2018-11-13T07:05:27.731Z,99811.23
2018-11-13T07:07:56.199Z,99843.55
2018-11-13T07:10:25.836Z,99851.17
2018-11-13T07:12:54.887Z,99859.62
2018-11-13T07:15:25.430Z,99859.47
2018-11-13T07:17:55.322Z,99864.70
2018-11-13T07:20:25.320Z,99883.68
2018-11-13T07:22:53.745Z,99892.25
2018-11-13T07:25:22.440Z,99885.01
2018-11-13T07:27:52.014Z,99892.25
2018-11-13T07:30:20.942Z,99911.49
2018-11-13T07:32:49.399Z,99914.19
2018-11-13T07:35:18.888Z,99901.00
2018-11-13T07:37:52.407Z,99897.57
2018-11-13T07:40:21.054Z,99902.80
2018-11-13T07:42:49.660Z,99914.68
2018-11-13T07:45:18.493Z,99946.59
2018-11-13T07:47:47.612Z,99956.16
2018-11-13T07:50:16.971Z,99943.94
2018-11-13T07:52:46.777Z,99969.05
2018-11-13T07:55:16.259Z,99974.51
2018-11-13T07:57:44.895Z,99961.70
2018-11-13T08:00:19.837Z,99966.30
2018-11-13T08:02:49.454Z,99956.61
2018-11-13T08:05:17.998Z,99961.43
2018-11-13T08:07:46.767Z,99960.58
2018-11-13T08:10:15.479Z,99973.04
2018-11-13T08:12:43.993Z,99969.77
2018-11-13T08:15:14.723Z,99991.53
2018-11-13T08:17:43.448Z,99987.08
2018-11-13T08:20:13.373Z,99982.84
2018-11-13T08:22:43.103Z,99269.28
2018-11-13T08:25:13.872Z,99991.73
2018-11-13T08:27:42.978Z,99999.34
2018-11-13T08:30:13.912Z,100001.33
2018-11-13T08:32:42.876Z,100002.12
2018-11-13T08:35:11.677Z,100019.42
2018-11-13T08:37:40.180Z,100017.52
2018-11-13T08:40:11.204Z,100022.48
2018-11-13T08:42:39.690Z,100027.58
2018-11-13T08:45:08.575Z,100026.22
2018-11-13T08:47:37.288Z,100028.05
2018-11-13T08:50:06.015Z,100033.61
2018-11-13T08:52:34.507Z,100039.88
2018-11-13T08:55:02.963Z,100048.61
2018-11-13T08:57:31.518Z,100053.91
2018-11-13T09:00:00.115Z,100058.65
2018-11-13T09:02:28.570Z,100061.80
2018-11-13T09:04:57.085Z,100059.02
2018-11-13T09:07:25.575Z,100058.17
2018-11-13T09:09:54.027Z,100062.41
2018-11-13T09:12:22.612Z,100067.95
2018-11-13T09:14:51.040Z,100063.34
2018-11-13T09:17:19.535Z,100064.57
2018-11-13T09:19:48.053Z,100063.81
2018-11-13T09:22:16.383Z,100066.14
2018-11-13T09:24:45.560Z,100058.52
2018-11-13T09:27:14.283Z,100062.76
2018-11-13T09:29:42.764Z,100063.36
2018-11-13T09:32:11.219Z,100063.73
2018-11-13T09:34:39.712Z,100069.77
2018-11-13T09:37:08.167Z,100073.14
2018-11-13T09:39:36.655Z,100071.80
2018-11-13T09:42:05.998Z,100088.98
2018-11-13T09:44:34.466Z,100092.09
2018-11-13T09:47:02.864Z,100089.49
2018-11-13T09:49:31.286Z,100087.75
2018-11-13T09:52:00.757Z,100091.33
2018-11-13T09:54:29.195Z,100098.00
2018-11-13T09:56:57.650Z,100096.45
2018-11-13T09:59:26.130Z,100096.09
2018-11-13T10:01:54.741Z,100088.42
2018-11-13T10:04:23.588Z,100104.34
2018-11-13T10:06:51.474Z,100094.97
2018-11-13T10:09:20.023Z,100109.33
2018-11-13T10:11:48.445Z,100099.66
2018-11-13T10:14:16.912Z,100099.06
2018-11-13T10:16:47.461Z,100105.42
2018-11-13T10:19:16.682Z,100102.98
2018-11-13T10:21:45.107Z,100108.25
2018-11-13T10:24:13.568Z,100109.23
2018-11-13T10:26:42.007Z,100107.56
2018-11-13T10:29:10.465Z,100100.31
2018-11-13T10:31:38.864Z,100105.23
2018-11-13T10:34:07.325Z,100111.80
2018-11-13T10:36:35.767Z,100110.30
2018-11-13T10:39:04.868Z,100111.69
2018-11-13T10:41:33.378Z,100116.53
2018-11-13T10:44:01.835Z,100113.31
2018-11-13T10:46:30.240Z,100123.44
2018-11-13T10:48:58.717Z,100122.22
2018-11-13T10:51:27.501Z,100118.95
2018-11-13T10:53:56.649Z,100113.08
2018-11-13T10:56:25.083Z,100112.25
2018-11-13T10:58:53.930Z,100117.31
2018-11-13T11:01:27.692Z,100112.25
2018-11-13T11:04:01.582Z,100104.90
2018-11-13T11:06:32.922Z,100103.69
2018-11-13T11:09:01.439Z,100108.21
2018-11-13T11:11:30.254Z,100112.33
2018-11-13T11:13:59.077Z,100114.42
2018-11-13T11:16:27.315Z,100111.09
2018-11-13T11:18:55.811Z,100112.03
2018-11-13T11:21:24.537Z,100114.92
2018-11-13T11:23:52.995Z,100108.03
2018-11-13T11:26:22.397Z,100105.97
2018-11-13T11:28:50.806Z,100112.16
2018-11-13T11:31:19.269Z,100108.73
2018-11-13T11:33:47.735Z,100110.89
2018-11-13T11:36:16.913Z,100117.28
2018-11-13T11:38:45.471Z,100108.44
2018-11-13T11:41:13.857Z,100112.09
2018-11-13T11:43:42.303Z,100118.17
2018-11-13T11:46:10.774Z,100123.52
2018-11-13T11:48:40.641Z,100118.81
2018-11-13T11:51:09.282Z,100126.36
2018-11-13T11:53:37.811Z,100123.81
2018-11-13T11:56:06.749Z,100124.33
2018-11-13T11:58:35.266Z,100123.92
2018-11-13T12:01:04.033Z,100115.11
2018-11-13T12:03:32.507Z,100127.20
2018-11-13T12:06:01.539Z,100102.40
2018-11-13T12:08:30.021Z,100114.87
2018-11-13T12:10:58.480Z,100121.83
2018-11-13T12:13:26.943Z,100131.30
2018-11-13T12:15:55.371Z,100139.06
2018-11-13T12:18:23.849Z,100133.11
2018-11-13T12:20:52.404Z,100136.53
2018-11-13T12:23:20.845Z,100129.39
2018-11-13T12:25:49.355Z,100140.50
2018-11-13T12:28:17.778Z,100142.12
2018-11-13T12:30:46.337Z,100147.70
2018-11-13T12:33:14.779Z,100156.80
2018-11-13T12:35:43.233Z,100162.55
2018-11-13T12:38:12.288Z,100155.36
2018-11-13T12:40:42.146Z,100166.30
2018-11-13T12:43:10.634Z,100162.77
2018-11-13T12:45:39.064Z,100178.94
2018-11-13T12:48:07.739Z,100164.00
2018-11-13T12:50:41.437Z,100166.77
2018-11-13T12:53:10.075Z,100165.45
2018-11-13T12:55:38.758Z,100158.81
2018-11-13T12:58:07.190Z,100177.06
2018-11-13T13:00:35.649Z,100171.96
2018-11-13T13:03:04.294Z,100181.14
2018-11-13T13:05:32.780Z,100189.84
2018-11-13T13:08:01.372Z,100172.90
2018-11-13T13:10:29.816Z,100175.45
2018-11-13T13:12:58.330Z,100182.16
2018-11-13T13:15:26.847Z,100193.44
2018-11-13T13:17:55.407Z,100179.80
2018-11-13T13:20:25.247Z,100183.92
2018-11-13T13:22:53.706Z,100193.56
2018-11-13T13:25:23.973Z,100194.07
2018-11-13T13:27:52.509Z,100192.19
2018-11-13T13:30:22.193Z,100195.53
2018-11-13T13:32:50.761Z,100197.20
2018-11-13T13:35:54.369Z,100191.89
2018-11-13T13:38:23.453Z,100195.59
2018-11-13T13:40:52.965Z,100188.44
2018-11-13T13:43:22.449Z,100186.59
2018-11-13T13:45:51.196Z,100181.50
2018-11-13T13:48:20.900Z,100196.57
2018-11-13T13:50:49.342Z,100196.25
2018-11-13T13:53:18.714Z,100203.16
2018-11-13T13:55:47.766Z,100196.80
2018-11-13T13:58:16.767Z,100198.08
2018-11-13T14:00:45.344Z,100199.72
2018-11-13T14:03:14.364Z,100198.62
2018-11-13T14:05:43.644Z,100206.59
2018-11-13T14:08:13.029Z,100212.16
2018-11-13T14:10:41.574Z,100211.33
2018-11-13T14:13:10.396Z,100219.65
2018-11-13T14:15:38.935Z,100220.51
2018-11-13T14:18:07.375Z,100224.51
2018-11-13T14:20:35.883Z,100221.80
2018-11-13T14:23:05.384Z,100221.92
2018-11-13T14:25:35.751Z,100220.23
2018-11-13T14:28:04.265Z,100224.03
2018-11-13T14:30:34.253Z,100225.61
2018-11-13T14:33:05.230Z,100225.95
2018-11-13T14:35:33.998Z,100230.63
2018-11-13T14:38:02.638Z,100225.77
2018-11-13T14:40:34.636Z,100220.98
2018-11-13T14:43:03.673Z,100231.45
2018-11-13T14:45:32.358Z,100230.52
2018-11-13T14:48:04.331Z,100232.36
2018-11-13T14:50:34.281Z,100230.45
2018-11-13T14:53:03.042Z,100245.06
2018-11-13T14:55:33.700Z,100241.48
2018-11-13T14:58:03.003Z,100238.44
2018-11-13T15:00:32.751Z,100244.76
2018-11-13T15:03:02.051Z,100247.91
2018-11-13T15:05:31.095Z,100240.90
2018-11-13T15:08:00.930Z,100238.97
2018-11-13T15:10:54.355Z,100250.20
2018-11-13T15:13:24.702Z,100240.16
2018-11-13T15:15:53.155Z,100252.23
2018-11-13T15:18:21.646Z,100252.25
2018-11-13T15:20:51.146Z,100256.22
2018-11-13T15:23:19.634Z,100254.04
2018-11-13T15:25:48.304Z,100263.84
2018-11-13T15:28:16.803Z,100265.61
2018-11-13T15:30:47.823Z,100266.61
2018-11-13T15:33:18.744Z,100273.45
2018-11-13T15:35:47.303Z,100279.09
2018-11-13T15:38:17.015Z,100275.83
2018-11-13T15:40:45.897Z,100284.06
2018-11-13T15:43:14.363Z,100282.70
2018-11-13T15:45:43.548Z,100287.14
2018-11-13T15:48:13.212Z,100287.61
2018-11-13T15:50:42.385Z,100293.75
2018-11-13T15:53:11.908Z,100297.77
2018-11-13T15:55:40.480Z,100302.77
2018-11-13T15:58:09.147Z,100305.22
2018-11-13T16:00:38.896Z,100311.94
2018-11-13T16:03:11.755Z,100311.78
2018-11-13T16:05:44.740Z,100327.20
2018-11-13T16:08:13.679Z,100323.42
2018-11-13T16:10:42.194Z,100330.35
2018-11-13T16:13:11.183Z,100331.42
2018-11-13T16:15:39.840Z,100340.52
2018-11-13T16:18:13.128Z,100337.70
2018-11-13T16:20:41.595Z,100345.91
2018-11-13T16:23:10.104Z,100341.13
2018-11-13T16:25:38.494Z,100354.17
2018-11-13T16:28:07.063Z,100350.42
2018-11-13T16:30:36.866Z,100360.47
2018-11-13T16:33:06.061Z,100359.67
2018-11-13T16:35:34.626Z,100357.25
2018-11-13T16:38:06.073Z,100353.98
2018-11-13T16:40:37.288Z,100359.20
2018-11-13T16:43:06.960Z,100360.77
2018-11-13T16:45:35.709Z,100355.98
2018-11-13T16:48:05.101Z,100360.34
2018-11-13T16:50:35.743Z,100360.06
2018-11-13T16:53:04.996Z,100359.80
2018-11-13T16:55:38.767Z,100368.50
2018-11-13T16:58:09.031Z,100371.83
2018-11-13T17:00:37.754Z,100377.27
2018-11-13T17:03:07.064Z,100380.48
2018-11-13T17:05:35.547Z,100383.50
2018-11-13T17:08:04.004Z,100384.55
2018-11-13T17:10:33.235Z,100384.19
2018-11-13T17:13:03.839Z,100385.78
2018-11-13T17:15:33.424Z,100384.36
2018-11-13T17:18:03.073Z,100387.30
2018-11-13T17:20:31.640Z,100390.16
2018-11-13T17:23:00.864Z,100389.39
2018-11-13T17:25:32.744Z,100395.09
2018-11-13T17:28:01.778Z,100392.13
2018-11-13T17:30:32.435Z,100403.20
2018-11-13T17:33:02.173Z,100409.44
2018-11-13T17:35:31.266Z,100406.42
2018-11-13T17:38:00.579Z,100412.11
2018-11-13T17:40:30.729Z,100419.34
2018-11-13T17:43:00.375Z,100426.83
2018-11-13T17:48:29.515Z,100432.45
2018-11-13T17:50:58.090Z,100434.11
2018-11-13T17:53:26.678Z,100433.61
2018-11-13T17:55:55.151Z,100437.98
2018-11-13T17:58:23.639Z,100430.51
2018-11-13T18:00:52.192Z,100437.67
2018-11-13T18:03:20.707Z,100443.20
2018-11-13T18:05:49.671Z,100444.13
2018-11-13T18:08:18.135Z,100446.94
2018-11-13T18:10:48.021Z,100446.05
2018-11-13T18:13:16.693Z,100440.46
2018-11-13T18:15:45.209Z,100446.17
2018-11-13T18:18:13.697Z,100440.98
2018-11-13T18:20:42.386Z,100442.21
2018-11-13T18:23:11.126Z,100445.08
2018-11-13T18:25:39.593Z,100442.83
2018-11-13T18:28:08.326Z,100443.55
2018-11-13T18:30:38.040Z,100449.27
2018-11-13T18:33:07.511Z,100455.36
2018-11-13T18:35:37.095Z,100459.06
2018-11-13T18:38:07.363Z,100459.39
2018-11-13T18:40:36.785Z,100463.55
2018-11-13T18:43:05.639Z,100461.47
2018-11-13T18:45:35.540Z,100460.63
2018-11-13T18:48:04.071Z,100453.45
2018-11-13T18:50:33.995Z,100462.98
2018-11-13T18:53:02.553Z,100450.80
2018-11-13T18:55:32.140Z,100454.08
2018-11-13T18:58:01.220Z,100458.88
2018-11-13T19:00:31.547Z,100463.03
2018-11-13T19:03:00.677Z,100462.47
2018-11-13T19:05:29.428Z,100469.69
2018-11-13T19:07:58.240Z,100471.41
2018-11-13T19:10:33.641Z,100462.42
2018-11-13T19:13:03.189Z,100468.38
2018-11-13T19:15:33.231Z,100477.37
2018-11-13T19:18:02.071Z,100474.35
2018-11-13T19:20:31.380Z,100479.11
2018-11-13T19:23:00.812Z,100482.02
2018-11-13T19:25:30.651Z,100479.56
2018-11-13T19:28:00.316Z,100485.03
2018-11-13T19:30:29.330Z,100485.15
2018-11-13T19:32:57.836Z,100482.16
2018-11-13T19:35:26.647Z,100487.63
2018-11-13T19:37:55.044Z,100485.59
2018-11-13T19:40:27.082Z,100480.45
2018-11-13T19:42:57.029Z,100480.59
2018-11-13T19:45:26.118Z,100485.17
2018-11-13T19:47:54.588Z,100488.42
2018-11-13T19:50:25.583Z,100480.42
2018-11-13T19:52:53.965Z,100481.84
2018-11-13T19:55:23.298Z,100485.17
2018-11-13T19:57:51.713Z,100484.50
2018-11-13T20:00:23.566Z,100497.92
2018-11-13T20:02:53.045Z,100505.61
2018-11-13T20:05:22.161Z,100503.34
2018-11-13T20:07:51.340Z,100505.66
2018-11-13T20:10:21.226Z,100502.64
2018-11-13T20:12:50.544Z,100504.71
2018-11-13T20:15:19.548Z,100503.38
2018-11-13T20:17:48.096Z,100506.25
2018-11-13T20:20:19.749Z,100511.98
2018-11-13T20:22:48.735Z,100506.11
2018-11-13T20:25:18.611Z,100515.56
2018-11-13T20:27:47.217Z,100519.66
2018-11-13T20:30:21.630Z,100517.50
2018-11-13T20:32:50.099Z,100518.40
2018-11-13T20:35:18.664Z,100513.67
2018-11-13T20:37:48.039Z,100514.30
2018-11-13T20:40:18.805Z,100519.34
2018-11-13T20:42:48.374Z,100515.39
2018-11-13T20:45:16.853Z,100518.34
2018-11-13T20:47:45.315Z,100521.25
2018-11-13T20:50:16.318Z,100522.73
2018-11-13T20:52:44.902Z,100518.34
2018-11-13T20:55:13.483Z,100519.23
2018-11-13T20:57:41.970Z,100516.25
2018-11-13T21:00:13.415Z,100516.08
2018-11-13T21:02:41.911Z,100512.40
2018-11-13T21:05:10.361Z,100519.03
2018-11-13T21:07:38.985Z,100520.80
2018-11-13T21:10:11.412Z,100524.56
2018-11-13T21:12:40.388Z,100515.70
2018-11-13T21:15:10.678Z,100520.62
2018-11-13T21:17:39.142Z,100522.22
2018-11-13T21:20:09.236Z,100517.81
2018-11-13T21:22:38.064Z,100513.61
2018-11-13T21:25:08.412Z,100515.33
2018-11-13T21:27:36.932Z,100518.64
2018-11-13T21:30:11.169Z,100517.59
2018-11-13T21:32:39.708Z,100514.84
2018-11-13T21:35:08.898Z,100520.52
2018-11-13T21:37:37.553Z,100518.45
2018-11-13T21:40:07.350Z,100513.27
2018-11-13T21:42:35.814Z,100522.56
2018-11-13T21:45:04.361Z,100363.55
2018-11-13T21:47:32.879Z,100518.97
2018-11-13T21:50:01.426Z,100517.08
2018-11-13T21:52:29.848Z,100517.53
2018-11-13T21:54:58.914Z,100524.08
2018-11-13T21:57:28.107Z,100528.39
2018-11-13T21:59:57.122Z,100529.13
2018-11-13T22:02:25.630Z,100531.08
2018-11-13T22:04:54.136Z,100530.34
2018-11-13T22:07:22.801Z,100529.20
2018-11-13T22:09:52.592Z,100531.92
2018-11-13T22:12:21.154Z,100526.23
2018-11-13T22:14:49.619Z,100527.33
2018-11-13T22:17:18.201Z,100523.02
2018-11-13T22:19:46.951Z,100521.13
2018-11-13T22:22:15.410Z,100524.34
2018-11-13T22:24:43.898Z,100525.28
2018-11-13T22:27:12.436Z,100526.02
2018-11-13T22:29:40.859Z,100530.95
2018-11-13T22:32:09.336Z,100521.00
2018-11-13T22:34:37.807Z,100526.33
2018-11-13T22:37:06.500Z,100521.39
2018-11-13T22:39:35.039Z,100520.39
2018-11-13T22:42:03.612Z,100520.81
2018-11-13T22:44:32.083Z,100521.94
2018-11-13T22:47:00.554Z,100530.08
2018-11-13T22:49:29.582Z,100525.03
2018-11-13T22:51:58.200Z,100522.58
2018-11-13T22:54:27.733Z,100509.55
2018-11-13T22:56:56.273Z,100526.36
2018-11-13T22:59:24.732Z,100539.53
2018-11-13T23:01:53.203Z,100528.67
2018-11-13T23:04:22.008Z,100530.95
2018-11-13T23:06:50.753Z,100526.89
2018-11-13T23:09:19.787Z,100535.50
2018-11-13T23:11:48.356Z,100536.02
2018-11-13T23:14:16.832Z,100535.95
2018-11-13T23:16:45.285Z,100533.59
2018-11-13T23:19:13.991Z,100528.61
2018-11-13T23:21:42.543Z,100523.47
2018-11-13T23:24:11.017Z,100532.77
2018-11-13T23:26:39.907Z,100523.56
2018-11-13T23:29:08.700Z,100522.36
2018-11-13T23:31:37.262Z,100526.30
2018-11-13T23:34:05.745Z,100521.72
2018-11-13T23:36:34.238Z,100528.60
2018-11-13T23:39:02.781Z,100526.02
2018-11-13T23:41:31.327Z,100526.11
2018-11-13T23:43:59.867Z,100531.00
2018-11-13T23:46:28.332Z,100526.93
2018-11-13T23:48:57.268Z,100522.70
2018-11-13T23:51:25.799Z,100535.32
2018-11-13T23:53:54.519Z,100541.75
2018-11-13T23:56:22.908Z,100544.52
2018-11-13T23:58:58.413Z,100543.45
